Time;durP1;ratioP1;P1;durP2;ratioP2;P2;SDS_P1;SDS_P2;PMS_P1;PMS_P2;Temp;Humidity;BMP_temperature;BMP_pressure;BME280_temperature;BME280_humidity;BME280_pressure;Samples;Min_cycle;Max_cycle;Signal;HPM_P1;HPM_P2
2022/07/23 03:00:58;;;;;;;4.93;3.75;;;29.90;40.60;;;;;;5682346;23;45883;-63
2022/07/23 03:03:24;;;;;;;4.85;3.60;;;29.90;40.50;;;;;;4920561;28;45253;-65
2022/07/23 03:05:51;;;;;;;5.15;3.78;;;29.90;40.50;;;;;;4942883;28;45452;-62
2022/07/23 03:08:17;;;;;;;4.75;3.92;;;29.90;40.60;;;;;;4957578;28;45495;-62
2022/07/23 03:10:43;;;;;;;6.13;3.70;;;29.90;40.70;;;;;;4959882;28;45384;-69
2022/07/23 03:13:09;;;;;;;6.15;4.68;;;29.90;40.80;;;;;;4968855;28;44901;-66
2022/07/23 03:15:36;;;;;;;5.88;4.15;;;29.90;41.00;;;;;;4969700;28;45183;-64
2022/07/23 03:18:02;;;;;;;5.32;4.30;;;29.90;41.10;;;;;;4974167;28;45394;-59
2022/07/23 03:20:28;;;;;;;4.25;3.75;;;29.80;41.20;;;;;;4968674;28;45157;-64
2022/07/23 03:22:55;;;;;;;4.30;3.90;;;29.80;41.30;;;;;;4974055;28;45943;-62
2022/07/23 03:25:21;;;;;;;6.75;4.20;;;29.80;41.40;;;;;;4964961;28;45345;-63
2022/07/23 03:27:47;;;;;;;7.32;4.75;;;29.80;41.40;;;;;;4970752;28;45441;-66
2022/07/23 03:30:14;;;;;;;5.43;4.18;;;29.80;41.50;;;;;;4968686;28;45201;-68
2022/07/23 03:32:40;;;;;;;4.97;4.15;;;29.80;41.50;;;;;;4971827;28;46110;-65
2022/07/23 03:35:07;;;;;;;7.30;3.90;;;29.80;41.70;;;;;;4949879;28;45187;-64
2022/07/23 03:37:33;;;;;;;7.35;3.78;;;29.80;41.70;;;;;;4974468;28;45509;-61
2022/07/23 03:39:59;;;;;;;5.90;4.53;;;29.80;41.80;;;;;;4972356;28;45179;-65
2022/07/23 03:42:26;;;;;;;4.65;3.53;;;29.80;41.80;;;;;;4971125;28;46484;-63
2022/07/23 03:44:53;;;;;;;4.45;3.90;;;29.80;41.90;;;;;;4958254;28;45339;-63
2022/07/23 03:47:21;;;;;;;4.40;4.00;;;29.70;41.90;;;;;;4972467;28;46753;-66
2022/07/23 03:49:48;;;;;;;6.22;4.30;;;29.70;42.00;;;;;;4974782;28;44945;-65
2022/07/23 03:52:14;;;;;;;5.57;3.97;;;29.70;42.00;;;;;;4975100;28;45835;-61
2022/07/23 03:54:41;;;;;;;7.50;4.43;;;29.70;42.10;;;;;;4973266;28;44774;-61
2022/07/23 03:57:07;;;;;;;5.18;4.20;;;29.60;42.10;;;;;;4974505;28;45435;-63
2022/07/23 03:59:33;;;;;;;7.93;4.93;;;29.60;42.20;;;;;;4972721;28;45187;-64
2022/07/23 04:02:00;;;;;;;5.70;4.20;;;29.60;42.30;;;;;;4957054;28;46844;-68
2022/07/23 04:04:26;;;;;;;6.28;4.07;;;29.60;42.30;;;;;;4945161;28;45820;-66
2022/07/23 04:06:52;;;;;;;5.53;4.03;;;29.60;42.40;;;;;;4957488;28;46366;-66
2022/07/23 04:09:19;;;;;;;5.15;3.83;;;29.60;42.60;;;;;;4953153;28;45568;-67
2022/07/23 04:11:45;;;;;;;8.35;3.80;;;29.60;42.40;;;;;;4952589;28;46058;-66
2022/07/23 04:14:11;;;;;;;4.82;4.32;;;29.60;42.50;;;;;;4953186;28;45579;-68
2022/07/23 04:16:37;;;;;;;5.65;4.05;;;29.50;42.50;;;;;;4951522;28;45334;-69
2022/07/23 04:19:04;;;;;;;6.20;4.65;;;29.60;42.60;;;;;;4953653;28;45344;-61
2022/07/23 04:21:30;;;;;;;4.85;3.47;;;29.50;42.60;;;;;;4951980;28;46035;-64
2022/07/23 04:23:57;;;;;;;3.80;3.15;;;29.60;43.20;;;;;;4954317;28;45225;-65
2022/07/23 04:26:23;;;;;;;8.10;4.32;;;29.50;42.60;;;;;;4954382;28;45470;-72
2022/07/23 04:28:49;;;;;;;7.00;5.00;;;29.50;42.60;;;;;;4957841;28;45766;-65
2022/07/23 04:31:16;;;;;;;5.80;4.15;;;29.60;42.70;;;;;;4957160;28;46861;-64
2022/07/23 04:33:42;;;;;;;4.43;3.40;;;29.60;42.80;;;;;;4953050;28;45257;-63
2022/07/23 04:36:08;;;;;;;4.68;3.58;;;29.50;42.70;;;;;;4953681;28;45205;-67
2022/07/23 04:38:34;;;;;;;5.30;3.45;;;29.50;42.80;;;;;;4953850;28;45284;-67
2022/07/23 04:41:00;;;;;;;4.32;3.90;;;29.50;42.80;;;;;;4954270;28;46064;-69
2022/07/23 04:43:27;;;;;;;6.40;4.60;;;29.50;42.90;;;;;;4954207;28;45597;-62
2022/07/23 04:45:53;;;;;;;6.18;4.43;;;29.50;42.90;;;;;;4935524;28;45383;-67
2022/07/23 04:48:20;;;;;;;11.95;4.97;;;29.50;43.00;;;;;;4951945;28;45253;-63
2022/07/23 04:50:46;;;;;;;6.40;4.90;;;29.50;43.10;;;;;;4952635;28;45881;-63
2022/07/23 04:53:12;;;;;;;6.22;5.20;;;29.50;43.80;;;;;;4941168;28;45380;-66
2022/07/23 04:55:38;;;;;;;5.13;4.60;;;29.50;43.30;;;;;;4949370;28;45655;-69
2022/07/23 04:58:05;;;;;;;5.13;4.63;;;29.50;43.30;;;;;;4953125;28;45501;-65
2022/07/23 05:00:31;;;;;;;6.10;4.78;;;29.50;43.40;;;;;;4952746;28;46200;-69
2022/07/23 05:02:57;;;;;;;6.68;4.47;;;29.50;43.50;;;;;;4970943;28;45410;-67
2022/07/23 05:05:24;;;;;;;7.40;4.72;;;29.50;43.50;;;;;;4970944;28;45399;-67
2022/07/23 05:07:50;;;;;;;9.30;4.72;;;29.40;43.40;;;;;;4969889;28;45545;-65
2022/07/23 05:10:16;;;;;;;6.40;4.75;;;29.50;43.50;;;;;;4969690;28;46169;-67
2022/07/23 05:12:43;;;;;;;6.47;4.57;;;29.50;43.60;;;;;;4969485;28;45402;-67
2022/07/23 05:15:09;;;;;;;5.82;4.43;;;29.40;43.60;;;;;;4970171;28;45502;-66
2022/07/23 05:17:35;;;;;;;5.10;4.50;;;29.40;43.70;;;;;;4970553;28;45548;-69
2022/07/23 05:20:02;;;;;;;5.00;4.50;;;29.40;43.70;;;;;;4940613;28;46010;-63
2022/07/23 05:22:29;;;;;;;5.90;4.78;;;29.40;43.70;;;;;;4970112;28;45028;-67
2022/07/23 05:24:55;;;;;;;8.23;4.25;;;29.40;43.70;;;;;;4967666;28;46934;-61
2022/07/23 05:27:21;;;;;;;4.45;3.72;;;29.40;43.70;;;;;;4963094;28;45644;-70
2022/07/23 05:29:48;;;;;;;4.47;3.97;;;29.40;43.80;;;;;;4970212;28;47071;-65
2022/07/23 05:32:14;;;;;;;4.90;4.28;;;29.40;43.80;;;;;;4968052;28;45359;-63
2022/07/23 05:34:40;;;;;;;5.13;4.45;;;29.40;43.70;;;;;;4963436;28;45459;-70
2022/07/23 05:37:07;;;;;;;7.20;4.03;;;29.40;43.60;;;;;;4970870;28;45787;-66
2022/07/23 05:39:33;;;;;;;4.53;3.38;;;29.40;43.40;;;;;;4968467;28;45978;-66
2022/07/23 05:41:59;;;;;;;4.80;3.60;;;29.40;43.40;;;;;;4971190;28;44879;-68
2022/07/23 05:44:27;;;;;;;4.38;3.75;;;29.40;43.20;;;;;;4971837;28;45293;-65
2022/07/23 05:46:53;;;;;;;5.00;3.15;;;29.40;43.00;;;;;;4971500;28;45700;-70
2022/07/23 05:49:19;;;;;;;4.80;3.25;;;29.40;42.80;;;;;;4970330;28;46021;-68
2022/07/23 05:51:46;;;;;;;3.55;3.25;;;29.40;42.70;;;;;;4969165;28;45444;-64
2022/07/23 05:54:12;;;;;;;4.20;2.83;;;29.40;42.60;;;;;;4970749;28;45521;-66
2022/07/23 05:56:38;;;;;;;3.63;2.78;;;29.40;42.50;;;;;;4970819;28;45744;-68
2022/07/23 05:59:05;;;;;;;5.57;3.10;;;29.50;42.50;;;;;;4953870;28;46016;-65
2022/07/23 06:01:32;;;;;;;3.58;3.15;;;29.40;42.50;;;;;;4966276;28;45208;-65
2022/07/23 06:03:58;;;;;;;5.15;2.92;;;29.40;42.40;;;;;;4967598;28;45369;-69
2022/07/23 06:06:24;;;;;;;3.80;2.92;;;29.40;42.30;;;;;;4968237;28;45584;-66
2022/07/23 06:08:50;;;;;;;4.68;2.83;;;29.40;42.10;;;;;;4954127;28;46798;-67
2022/07/23 06:11:17;;;;;;;5.65;3.03;;;29.40;42.00;;;;;;4969475;28;45341;-64
2022/07/23 06:13:42;;;;;;;3.67;3.10;;;29.50;42.00;;;;;;4966911;28;45293;-67
2022/07/23 06:16:09;;;;;;;2.65;2.45;;;29.50;41.90;;;;;;4968132;28;44860;-64
2022/07/23 06:18:35;;;;;;;3.40;3.10;;;29.50;41.70;;;;;;4970207;28;46205;-66
2022/07/23 06:21:01;;;;;;;5.05;2.97;;;29.50;41.60;;;;;;4953733;28;45692;-70
2022/07/23 06:23:27;;;;;;;4.18;2.95;;;29.50;41.40;;;;;;4968653;28;45577;-68
2022/07/23 06:25:54;;;;;;;3.38;2.83;;;29.50;41.40;;;;;;4968984;28;45191;-66
2022/07/23 06:28:20;;;;;;;4.40;2.78;;;29.50;41.30;;;;;;4969382;28;46351;-64
2022/07/23 06:30:46;;;;;;;4.68;2.88;;;29.60;41.30;;;;;;4968073;28;45113;-67
2022/07/23 06:33:13;;;;;;;7.15;2.95;;;29.60;41.20;;;;;;4969093;28;45739;-64
2022/07/23 06:35:39;;;;;;;3.20;2.70;;;29.60;41.10;;;;;;4968423;28;44960;-66
2022/07/23 06:38:05;;;;;;;3.00;2.80;;;29.60;41.10;;;;;;4967096;28;46142;-65
2022/07/23 06:40:32;;;;;;;4.82;3.17;;;29.60;41.10;;;;;;4970355;28;45218;-62
2022/07/23 06:42:58;;;;;;;4.40;3.10;;;29.60;41.00;;;;;;4966568;28;45797;-62
2022/07/23 06:45:25;;;;;;;4.10;3.00;;;29.60;41.60;;;;;;4966803;28;45292;-67
2022/07/23 06:47:51;;;;;;;6.05;2.75;;;29.60;41.00;;;;;;4968192;28;46025;-65
2022/07/23 06:50:17;;;;;;;4.18;2.88;;;29.60;41.00;;;;;;4967715;28;45114;-66
2022/07/23 06:52:44;;;;;;;3.92;2.97;;;29.60;41.00;;;;;;4968929;28;45270;-67
2022/07/23 06:55:10;;;;;;;3.42;3.13;;;29.60;41.00;;;;;;4968027;28;45279;-67
2022/07/23 06:57:36;;;;;;;5.85;3.05;;;29.60;41.10;;;;;;4969879;28;45557;-65
2022/07/23 07:00:03;;;;;;;3.42;3.03;;;29.60;41.10;;;;;;4966316;28;45524;-66
2022/07/23 07:02:29;;;;;;;3.10;2.80;;;29.60;41.10;;;;;;4970044;28;44719;-65
2022/07/23 07:04:56;;;;;;;3.75;3.45;;;29.60;41.10;;;;;;4966435;28;45479;-68
2022/07/23 07:07:22;;;;;;;4.22;2.78;;;29.70;41.10;;;;;;4966192;28;46830;-64
2022/07/23 07:09:48;;;;;;;6.13;3.53;;;29.60;41.10;;;;;;4966269;28;45634;-67
2022/07/23 07:12:15;;;;;;;4.72;3.78;;;29.60;41.10;;;;;;4969288;28;45283;-69
2022/07/23 07:14:41;;;;;;;6.70;3.40;;;29.60;41.20;;;;;;4967589;28;45165;-63
2022/07/23 07:17:08;;;;;;;3.60;3.25;;;29.60;41.20;;;;;;4970575;28;45318;-64
2022/07/23 07:19:34;;;;;;;6.53;3.50;;;29.60;41.20;;;;;;4969040;28;45520;-66
2022/07/23 07:22:00;;;;;;;5.18;3.25;;;29.60;41.30;;;;;;4967367;28;44889;-65
2022/07/23 07:24:26;;;;;;;6.10;3.58;;;29.60;41.40;;;;;;4966027;28;45318;-65
2022/07/23 07:26:53;;;;;;;9.48;3.70;;;29.60;41.30;;;;;;4969430;28;46208;-67
2022/07/23 07:29:19;;;;;;;4.82;3.20;;;29.60;41.30;;;;;;4965871;28;45803;-70
2022/07/23 07:31:45;;;;;;;5.60;3.97;;;29.60;41.40;;;;;;4964239;28;45328;-66
2022/07/23 07:34:12;;;;;;;4.65;3.63;;;29.60;41.40;;;;;;4968464;28;45693;-65
2022/07/23 07:36:38;;;;;;;4.10;3.60;;;29.60;41.50;;;;;;4970650;28;45298;-66
2022/07/23 07:39:04;;;;;;;4.40;3.20;;;29.50;41.50;;;;;;4951813;28;45169;-64
2022/07/23 07:41:31;;;;;;;7.55;3.85;;;29.50;41.50;;;;;;4968276;28;45539;-63
2022/07/23 07:43:57;;;;;;;4.03;3.70;;;29.50;41.70;;;;;;4953506;28;44901;-61
2022/07/23 07:46:23;;;;;;;6.03;3.70;;;29.30;42.00;;;;;;4971321;28;46176;-70
2022/07/23 07:48:50;;;;;;;4.03;3.63;;;29.30;43.10;;;;;;4971534;28;44921;-61
2022/07/23 07:51:16;;;;;;;4.07;3.60;;;29.30;42.90;;;;;;4969354;28;46770;-62
2022/07/23 07:53:43;;;;;;;6.85;4.25;;;29.30;43.10;;;;;;4971770;28;44693;-63
2022/07/23 07:56:09;;;;;;;3.85;3.47;;;29.20;43.50;;;;;;4971576;28;45914;-64
2022/07/23 07:58:35;;;;;;;5.57;3.63;;;29.20;43.80;;;;;;4960047;28;45446;-65
2022/07/23 08:01:02;;;;;;;5.20;3.72;;;29.10;44.10;;;;;;4965397;28;45343;-66
2022/07/23 08:03:29;;;;;;;5.88;3.60;;;29.10;44.20;;;;;;4967162;28;45463;-63
2022/07/23 08:05:55;;;;;;;4.38;3.35;;;29.10;44.50;;;;;;4971088;28;47969;-62
2022/07/23 08:08:21;;;;;;;6.28;3.85;;;29.10;44.70;;;;;;4967861;28;45993;-65
2022/07/23 08:10:47;;;;;;;7.75;3.80;;;29.10;44.80;;;;;;4970369;28;45308;-69
2022/07/23 08:13:15;;;;;;;5.28;4.18;;;29.10;44.80;;;;;;4968315;28;45260;-67
2022/07/23 08:15:41;;;;;;;4.65;3.72;;;29.10;44.90;;;;;;4974806;28;45586;-63
2022/07/23 08:18:07;;;;;;;3.95;3.38;;;29.10;45.00;;;;;;4970609;28;44756;-66
2022/07/23 08:20:32;;;;;;;5.15;3.40;;;29.00;45.00;;;;;;4970775;28;45545;-62
2022/07/23 08:22:59;;;;;;;4.47;3.08;;;29.00;45.30;;;;;;4954835;28;45439;-60
2022/07/23 08:25:30;;;;;;;7.78;2.92;;;29.00;45.50;;;;;;4972416;28;47223;-62
2022/07/23 08:27:57;;;;;;;6.28;3.67;;;29.00;45.70;;;;;;4972297;28;46258;-63
2022/07/23 08:30:22;;;;;;;6.70;3.83;;;29.00;46.00;;;;;;4947961;28;45493;-62
2022/07/23 08:33:02;;;;;;;10.23;3.38;;;29.00;45.90;;;;;;4966016;28;44805;-64
2022/07/23 08:35:30;;;;;;;4.00;2.92;;;29.00;46.60;;;;;;4969666;28;46227;-65
2022/07/23 08:37:56;;;;;;;6.20;3.97;;;29.00;46.00;;;;;;4969624;28;45228;-71
2022/07/23 08:40:22;;;;;;;4.25;3.05;;;29.00;45.90;;;;;;4967437;28;45037;-63
2022/07/23 08:42:49;;;;;;;4.82;3.05;;;29.10;45.80;;;;;;4960306;28;45721;-61
2022/07/23 08:45:20;;;;;;;4.70;3.83;;;29.20;46.00;;;;;;4978102;28;46186;-64
2022/07/23 08:47:50;;;;;;;5.35;3.60;;;29.20;46.10;;;;;;4954797;28;45547;-65
2022/07/23 08:50:16;;;;;;;4.70;3.55;;;29.20;46.00;;;;;;4962843;28;45593;-65
2022/07/23 08:52:41;;;;;;;7.07;3.97;;;29.20;46.10;;;;;;4973415;28;44824;-66
2022/07/23 08:55:08;;;;;;;3.47;3.17;;;29.20;46.10;;;;;;4953959;28;46124;-63
2022/07/23 08:57:33;;;;;;;4.78;3.58;;;29.10;46.30;;;;;;4950588;28;45383;-62
2022/07/23 08:59:59;;;;;;;5.20;3.88;;;29.10;46.30;;;;;;4965696;28;45237;-62
2022/07/23 09:02:24;;;;;;;4.30;3.80;;;29.20;46.40;;;;;;4953405;28;45469;-71
2022/07/23 09:04:50;;;;;;;6.85;3.50;;;29.20;46.50;;;;;;4969701;28;46103;-59
2022/07/23 09:07:16;;;;;;;3.95;3.17;;;29.20;46.60;;;;;;4951377;28;45407;-62
2022/07/23 09:09:41;;;;;;;3.65;3.13;;;29.20;46.80;;;;;;4969110;28;45016;-63
2022/07/23 09:12:08;;;;;;;5.13;3.58;;;29.20;46.70;;;;;;4964600;28;45320;-64
2022/07/23 09:14:38;;;;;;;3.65;3.35;;;29.20;46.80;;;;;;4973703;28;46648;-68
2022/07/23 09:17:14;;;;;;;5.40;3.92;;;29.20;47.00;;;;;;4966797;28;45371;-66
2022/07/23 09:19:40;;;;;;;5.25;4.05;;;29.20;47.30;;;;;;4958930;28;45455;-64
2022/07/23 09:22:28;;;;;;;4.45;3.90;;;29.20;46.60;;;;;;4971295;28;45667;-64
2022/07/23 09:25:08;;;;;;;5.60;4.13;;;29.30;47.70;;;;;;4952979;28;45952;-65
2022/07/23 09:27:56;;;;;;;6.43;3.72;;;29.30;47.20;;;;;;4967962;28;44697;-66
2022/07/23 09:30:29;;;;;;;5.45;3.83;;;29.30;47.70;;;;;;4973108;28;45081;-62
2022/07/23 09:33:10;;;;;;;4.68;3.72;;;29.30;46.90;;;;;;4971793;28;44679;-64
2022/07/23 09:35:46;;;;;;;4.40;4.00;;;29.30;47.10;;;;;;4970401;28;46077;-62
2022/07/23 09:38:12;;;;;;;6.40;4.10;;;29.30;47.10;;;;;;4950288;28;45256;-63
2022/07/23 09:40:37;;;;;;;4.53;3.60;;;29.30;46.80;;;;;;4973283;28;45266;-62
2022/07/23 09:43:03;;;;;;;4.88;3.30;;;29.30;46.90;;;;;;4939279;28;45122;-63
2022/07/23 09:45:29;;;;;;;4.30;3.70;;;29.30;47.10;;;;;;4969734;28;46172;-69
2022/07/23 09:48:14;;;;;;;5.53;3.78;;;29.20;47.00;;;;;;4952808;28;46746;-66
2022/07/23 09:50:41;;;;;;;7.75;3.75;;;29.30;47.60;;;;;;4965655;28;44958;-68
2022/07/23 09:53:06;;;;;;;4.65;3.75;;;29.30;47.00;;;;;;4951495;28;45495;-66
2022/07/23 09:55:36;;;;;;;4.70;3.58;;;29.30;46.90;;;;;;4968922;28;45123;-59
2022/07/23 09:58:03;;;;;;;5.70;3.83;;;29.30;47.00;;;;;;4969660;28;44646;-67
2022/07/23 10:00:29;;;;;;;4.78;3.22;;;29.30;47.00;;;;;;4970776;28;44796;-68
2022/07/23 10:02:55;;;;;;;5.32;3.33;;;29.30;47.00;;;;;;4938928;28;45015;-68
2022/07/23 10:05:20;;;;;;;4.78;3.83;;;29.30;47.00;;;;;;4954724;28;45097;-62
2022/07/23 10:07:46;;;;;;;4.15;3.75;;;29.30;47.00;;;;;;4934628;28;45263;-72
2022/07/23 10:10:11;;;;;;;4.85;3.80;;;29.30;47.20;;;;;;4952385;28;44755;-65
2022/07/23 10:15:06;;;;;;;4.28;3.47;;;29.30;47.20;;;;;;4955101;28;46825;-68
2022/07/23 10:17:32;;;;;;;4.20;3.50;;;29.30;47.50;;;;;;4966825;28;45295;-60
2022/07/23 10:19:58;;;;;;;6.35;3.47;;;29.30;47.50;;;;;;4956314;28;45473;-64
2022/07/23 10:22:26;;;;;;;4.63;3.40;;;29.30;47.60;;;;;;4975452;28;44908;-62
2022/07/23 10:25:12;;;;;;;4.22;3.58;;;29.30;47.80;;;;;;4952868;28;46194;-71
2022/07/23 10:27:47;;;;;;;5.03;3.53;;;29.30;48.20;;;;;;4956440;28;45704;-65
2022/07/23 10:30:15;;;;;;;3.78;3.42;;;29.20;47.90;;;;;;4954339;28;45354;-65
2022/07/23 10:32:47;;;;;;;4.03;3.63;;;29.20;48.30;;;;;;4950072;28;45405;-63
2022/07/23 10:35:38;;;;;;;5.23;3.47;;;29.20;48.50;;;;;;4974789;28;45358;-65
2022/07/23 10:38:27;;;;;;;3.67;3.22;;;29.20;50.00;;;;;;4961041;28;45660;-64
2022/07/23 10:40:55;;;;;;;5.35;3.25;;;29.20;50.10;;;;;;4918920;28;45378;-63
2022/07/23 10:43:22;;;;;;;4.30;3.55;;;29.20;48.60;;;;;;4971061;28;45342;-70
2022/07/23 10:45:48;;;;;;;6.90;3.60;;;29.20;48.70;;;;;;4949407;28;45333;-65
2022/07/23 10:48:22;;;;;;;6.35;3.55;;;29.20;48.70;;;;;;4955071;28;44971;-63
2022/07/23 10:51:13;;;;;;;5.68;3.92;;;29.20;48.90;;;;;;4970991;28;45196;-64
2022/07/23 10:53:52;;;;;;;5.07;4.00;;;29.20;49.50;;;;;;4970654;28;44818;-65
2022/07/23 10:56:56;;;;;;;5.18;3.55;;;29.30;49.20;;;;;;4971706;28;46781;-62
2022/07/23 10:59:22;;;;;;;4.03;3.60;;;29.20;49.30;;;;;;4966444;28;45259;-62
2022/07/23 11:01:48;;;;;;;5.20;3.85;;;29.20;48.70;;;;;;4948248;28;45453;-68
2022/07/23 11:04:16;;;;;;;6.35;4.00;;;29.20;48.70;;;;;;4931708;28;45793;-69
2022/07/23 11:06:49;;;;;;;6.63;3.67;;;29.20;48.90;;;;;;4959418;28;45692;-64
2022/07/23 11:09:28;;;;;;;3.60;3.30;;;29.20;49.30;;;;;;4962185;28;45367;-71
2022/07/23 11:12:13;;;;;;;5.28;3.75;;;29.20;49.60;;;;;;4964453;28;45632;-66
2022/07/23 11:15:08;;;;;;;4.45;3.53;;;29.20;49.80;;;;;;4056105;28;10000535;-66
2022/07/23 11:17:36;;;;;;;5.80;3.30;;;29.10;49.90;;;;;;4907687;28;45285;-65
2022/07/23 11:20:13;;;;;;;4.45;3.53;;;29.10;49.20;;;;;;4917394;28;45115;-63
2022/07/23 11:22:44;;;;;;;3.88;3.42;;;29.00;49.80;;;;;;4918442;28;46039;-60
2022/07/23 11:25:10;;;;;;;4.22;3.83;;;29.00;49.70;;;;;;4917157;28;45602;-65
2022/07/23 11:27:40;;;;;;;4.32;3.70;;;29.00;50.10;;;;;;4914973;28;44675;-64
2022/07/23 11:30:10;;;;;;;3.83;3.25;;;29.00;49.50;;;;;;4904069;28;44834;-64
2022/07/23 11:32:40;;;;;;;5.30;3.28;;;29.00;49.90;;;;;;4899545;28;46229;-66
2022/07/23 11:35:27;;;;;;;6.63;3.67;;;29.00;50.00;;;;;;4916463;28;44955;-63
2022/07/23 11:37:58;;;;;;;4.70;3.78;;;29.00;50.60;;;;;;4895219;28;45577;-65
2022/07/23 11:40:23;;;;;;;5.70;3.70;;;29.00;49.90;;;;;;4902082;28;45216;-64
2022/07/23 11:42:54;;;;;;;3.95;3.10;;;29.00;49.90;;;;;;4900837;28;45324;-65
2022/07/23 11:45:23;;;;;;;5.95;3.67;;;29.00;50.00;;;;;;4922732;28;45266;-64
2022/07/23 11:47:48;;;;;;;5.00;3.53;;;29.00;49.90;;;;;;4901094;28;45266;-61
2022/07/23 11:50:14;;;;;;;6.82;3.67;;;29.00;49.90;;;;;;4902495;28;44704;-65
2022/07/23 11:52:40;;;;;;;4.22;3.50;;;29.00;50.50;;;;;;4902637;28;45320;-65
2022/07/23 11:55:07;;;;;;;4.30;3.85;;;29.00;49.90;;;;;;4905028;28;45313;-61
2022/07/23 11:57:57;;;;;;;4.35;3.78;;;29.00;49.90;;;;;;4914090;28;45214;-62
2022/07/23 12:00:24;;;;;;;3.72;3.22;;;29.00;50.50;;;;;;4921058;28;45295;-66
2022/07/23 12:02:52;;;;;;;4.55;3.53;;;29.00;49.90;;;;;;4884847;28;45654;-66
2022/07/23 12:05:19;;;;;;;7.65;3.35;;;29.00;49.90;;;;;;4895423;28;45664;-64
2022/07/23 12:07:51;;;;;;;4.25;3.67;;;29.00;49.90;;;;;;4912012;28;45757;-69
2022/07/23 12:10:17;;;;;;;5.80;3.67;;;29.00;49.80;;;;;;4912166;28;45417;-69
2022/07/23 12:12:51;;;;;;;4.63;3.65;;;29.00;49.70;;;;;;4914395;28;45376;-64
2022/07/23 12:15:40;;;;;;;6.13;4.05;;;29.00;49.70;;;;;;4914184;28;45539;-63
2022/07/23 12:18:08;;;;;;;4.03;3.63;;;29.10;49.60;;;;;;4901546;28;44659;-68
2022/07/23 12:20:35;;;;;;;4.68;3.63;;;29.10;49.60;;;;;;4911499;28;45762;-68
2022/07/23 12:23:03;;;;;;;4.40;3.70;;;29.10;49.50;;;;;;4895418;28;47075;-65
2022/07/23 12:25:30;;;;;;;4.53;2.70;;;29.10;49.40;;;;;;4914810;28;45627;-66
2022/07/23 12:28:15;;;;;;;5.72;3.10;;;29.20;49.50;;;;;;4910937;28;45327;-64
2022/07/23 12:30:43;;;;;;;3.88;3.22;;;29.20;49.50;;;;;;4897349;28;45471;-68
2022/07/23 12:33:11;;;;;;;4.00;3.47;;;29.20;49.70;;;;;;4911536;28;46020;-67
2022/07/23 12:35:40;;;;;;;5.65;4.25;;;29.20;48.90;;;;;;4898034;28;45122;-66
2022/07/23 12:38:08;;;;;;;4.35;3.72;;;29.30;48.90;;;;;;4914351;28;45336;-68
2022/07/23 12:40:37;;;;;;;4.18;3.78;;;29.30;48.70;;;;;;4910962;28;45124;-68
2022/07/23 12:43:04;;;;;;;4.53;3.97;;;29.30;48.70;;;;;;4907952;28;45425;-68
2022/07/23 12:45:46;;;;;;;4.82;3.90;;;29.40;48.50;;;;;;4914236;28;45289;-64
2022/07/23 12:48:28;;;;;;;4.25;3.90;;;29.40;48.50;;;;;;4912320;28;45414;-67
2022/07/23 12:50:54;;;;;;;3.83;3.42;;;29.50;48.40;;;;;;4914076;28;45182;-69
2022/07/23 12:53:22;;;;;;;4.10;3.72;;;29.50;48.20;;;;;;4912211;28;46921;-65
2022/07/23 12:55:48;;;;;;;5.18;3.83;;;29.50;48.00;;;;;;4912049;28;45573;-68
2022/07/23 12:58:18;;;;;;;4.25;3.72;;;29.50;47.80;;;;;;4912752;28;45016;-67
2022/07/23 13:00:56;;;;;;;5.25;3.67;;;29.50;47.90;;;;;;4907661;28;45742;-66
2022/07/23 13:03:51;;;;;;;4.32;3.92;;;29.50;47.80;;;;;;4919689;28;45934;-63
2022/07/23 13:06:16;;;;;;;4.30;3.90;;;29.60;47.80;;;;;;4897862;28;45595;-68
2022/07/23 13:08:42;;;;;;;5.43;3.90;;;29.60;47.70;;;;;;4911315;28;44797;-62
2022/07/23 13:11:08;;;;;;;3.63;3.25;;;29.60;47.60;;;;;;4909442;28;44806;-65
2022/07/23 13:13:34;;;;;;;5.68;4.03;;;29.70;47.60;;;;;;4907832;28;46478;-66
2022/07/23 13:16:00;;;;;;;4.22;3.83;;;29.70;47.40;;;;;;4911746;28;45516;-64
2022/07/23 13:18:26;;;;;;;4.00;3.60;;;29.70;47.40;;;;;;4893748;28;45866;-66
2022/07/23 13:20:52;;;;;;;4.80;3.65;;;29.70;47.40;;;;;;4911584;28;45094;-64
2022/07/23 13:23:18;;;;;;;6.22;3.92;;;29.70;47.40;;;;;;4894267;28;45528;-67
2022/07/23 13:25:43;;;;;;;5.55;4.22;;;29.70;47.90;;;;;;4911032;28;45597;-67
2022/07/23 13:28:09;;;;;;;4.45;3.95;;;29.80;47.10;;;;;;4913239;28;45269;-63
2022/07/23 13:30:35;;;;;;;4.10;3.70;;;29.80;47.00;;;;;;4902262;28;45301;-63
2022/07/23 13:33:02;;;;;;;6.18;3.67;;;29.80;46.80;;;;;;4911190;28;46150;-68
2022/07/23 13:35:27;;;;;;;4.00;3.70;;;29.80;46.70;;;;;;4910578;28;45725;-65
2022/07/23 13:37:53;;;;;;;7.20;3.72;;;29.90;46.60;;;;;;4917221;28;46817;-62
2022/07/23 13:40:18;;;;;;;4.13;3.60;;;29.90;46.50;;;;;;4926519;28;45310;-66
2022/07/23 13:42:44;;;;;;;5.47;3.97;;;29.80;46.20;;;;;;4918999;28;47412;-63
2022/07/23 13:45:10;;;;;;;5.10;3.90;;;29.90;46.20;;;;;;4920253;28;45340;-63
2022/07/23 13:47:35;;;;;;;3.92;3.55;;;30.00;46.00;;;;;;4916656;28;45301;-68
2022/07/23 13:50:01;;;;;;;5.72;3.95;;;30.00;45.70;;;;;;4917686;28;45282;-63
2022/07/23 13:52:26;;;;;;;4.40;3.80;;;30.00;45.30;;;;;;4914903;28;45260;-65
2022/07/23 13:54:52;;;;;;;4.72;4.32;;;30.00;45.10;;;;;;4913823;28;45222;-69
2022/07/23 13:57:17;;;;;;;4.82;3.78;;;30.00;44.90;;;;;;4898545;28;45329;-62
2022/07/23 13:59:43;;;;;;;4.45;3.63;;;30.00;44.60;;;;;;4918926;28;45274;-63
2022/07/23 14:02:09;;;;;;;4.15;3.60;;;30.00;44.50;;;;;;4917357;28;46335;-65
2022/07/23 14:04:34;;;;;;;4.72;3.67;;;30.00;44.00;;;;;;4918232;28;45347;-69
2022/07/23 14:07:00;;;;;;;3.58;3.28;;;30.00;44.00;;;;;;4899547;28;45288;-63
2022/07/23 14:09:27;;;;;;;5.10;3.85;;;30.00;43.70;;;;;;4916832;28;45559;-66
2022/07/23 14:11:52;;;;;;;6.75;3.60;;;30.00;43.60;;;;;;4918323;28;45322;-62
2022/07/23 14:14:18;;;;;;;6.47;3.70;;;30.00;43.10;;;;;;4919295;28;45201;-64
2022/07/23 14:16:44;;;;;;;9.23;4.38;;;30.10;43.20;;;;;;4906365;28;45435;-63
2022/07/23 14:19:10;;;;;;;6.47;4.20;;;30.10;42.90;;;;;;4916877;28;45064;-65
2022/07/23 14:21:35;;;;;;;7.63;3.88;;;30.10;42.70;;;;;;4920138;28;46795;-67
2022/07/23 14:24:01;;;;;;;3.95;3.55;;;30.10;42.40;;;;;;4918405;28;45459;-68
2022/07/23 14:26:27;;;;;;;3.85;3.38;;;30.10;42.30;;;;;;4919819;28;45422;-69
2022/07/23 14:28:53;;;;;;;4.82;3.83;;;30.10;42.10;;;;;;4918497;28;45156;-65
2022/07/23 14:31:18;;;;;;;4.00;3.70;;;30.20;42.10;;;;;;4918962;28;46138;-66
2022/07/23 14:33:44;;;;;;;5.90;4.20;;;30.20;41.90;;;;;;4903343;28;45573;-66
2022/07/23 14:36:09;;;;;;;5.88;4.15;;;30.20;41.60;;;;;;4904257;28;44855;-65
2022/07/23 14:38:35;;;;;;;6.53;3.80;;;30.20;41.60;;;;;;4917447;28;45329;-66
2022/07/23 14:41:01;;;;;;;5.35;3.55;;;30.20;41.40;;;;;;4919218;28;45321;-66
2022/07/23 14:43:26;;;;;;;4.05;3.65;;;30.20;41.10;;;;;;4916230;28;45497;-65
2022/07/23 14:45:52;;;;;;;7.20;3.85;;;30.20;41.00;;;;;;4920096;28;44826;-62
2022/07/23 14:48:17;;;;;;;4.57;3.58;;;30.20;41.00;;;;;;4901473;28;45132;-64
2022/07/23 14:50:43;;;;;;;5.38;3.63;;;30.20;40.80;;;;;;4920893;28;45866;-66
2022/07/23 14:53:08;;;;;;;5.35;3.78;;;30.30;40.80;;;;;;4900868;28;45479;-69
2022/07/23 14:55:34;;;;;;;6.45;3.75;;;30.30;40.60;;;;;;4910321;28;45624;-65
2022/07/23 14:58:00;;;;;;;5.10;3.67;;;30.30;40.50;;;;;;4910525;28;45436;-66
2022/07/23 15:00:25;;;;;;;4.63;3.20;;;30.30;40.40;;;;;;4913832;28;46144;-73
2022/07/23 15:02:52;;;;;;;4.20;3.80;;;30.40;40.40;;;;;;4909662;28;45490;-65
2022/07/23 15:05:18;;;;;;;3.70;3.40;;;30.40;40.20;;;;;;4908033;28;46877;-65
2022/07/23 15:07:43;;;;;;;5.07;3.60;;;30.40;40.00;;;;;;4909285;28;45627;-65
2022/07/23 15:10:09;;;;;;;5.65;3.40;;;30.40;39.80;;;;;;4891762;28;45118;-69
2022/07/23 15:12:34;;;;;;;4.40;3.47;;;30.50;39.70;;;;;;4911411;28;45622;-66
2022/07/23 15:15:00;;;;;;;6.00;3.40;;;30.50;39.60;;;;;;4907701;28;45103;-67
2022/07/23 15:17:25;;;;;;;4.45;3.50;;;30.50;39.20;;;;;;4909012;28;45307;-70
2022/07/23 15:19:51;;;;;;;3.60;3.30;;;30.50;38.90;;;;;;4895807;28;47251;-69
2022/07/23 15:22:17;;;;;;;3.95;3.20;;;30.50;38.70;;;;;;4910308;28;45326;-65
2022/07/23 15:24:43;;;;;;;4.85;3.60;;;30.50;38.60;;;;;;4910084;28;45303;-65
2022/07/23 15:27:08;;;;;;;4.13;3.35;;;30.50;38.50;;;;;;4912237;28;45495;-65
2022/07/23 15:29:34;;;;;;;7.30;3.78;;;30.50;38.40;;;;;;4909876;28;45514;-62
2022/07/23 15:31:59;;;;;;;4.20;3.45;;;30.50;38.30;;;;;;4908059;28;45540;-66
2022/07/23 15:34:28;;;;;;;4.03;3.63;;;30.50;38.10;;;;;;4911654;28;45574;-73
2022/07/23 15:36:54;;;;;;;6.68;3.25;;;30.50;38.00;;;;;;4909254;28;44762;-66
2022/07/23 15:39:20;;;;;;;4.25;3.47;;;30.50;38.30;;;;;;4910596;28;46189;-68
2022/07/23 15:41:45;;;;;;;3.70;3.25;;;30.50;38.20;;;;;;4910188;28;45362;-69
2022/07/23 15:44:11;;;;;;;4.97;3.72;;;30.50;38.30;;;;;;4913663;28;45335;-66
2022/07/23 15:46:37;;;;;;;4.93;3.45;;;30.60;38.40;;;;;;4911800;28;45605;-65
2022/07/23 15:49:02;;;;;;;5.85;3.53;;;30.60;39.00;;;;;;4910212;28;45548;-68
2022/07/23 15:51:28;;;;;;;4.38;3.63;;;30.60;38.60;;;;;;4910494;28;45531;-65